sensor_id;sensor_type;location;lat;lon;timestamp;P1;durP1;ratioP1;P2;durP2;ratioP2
8478;SDS011;4276;49.354;6.804;2023-04-15T00:00:56;6.95;;;4.53;;
8478;SDS011;4276;49.354;6.804;2023-04-15T00:03:23;5.38;;;4.85;;
8478;SDS011;4276;49.354;6.804;2023-04-15T00:05:50;5.68;;;4.93;;
8478;SDS011;4276;49.354;6.804;2023-04-15T00:08:17;6.90;;;4.90;;
8478;SDS011;4276;49.354;6.804;2023-04-15T00:10:43;5.40;;;4.90;;
8478;SDS011;4276;49.354;6.804;2023-04-15T00:13:11;5.40;;;4.85;;
8478;SDS011;4276;49.354;6.804;2023-04-15T00:15:38;6.97;;;4.93;;
8478;SDS011;4276;49.354;6.804;2023-04-15T00:18:04;5.20;;;4.70;;
8478;SDS011;4276;49.354;6.804;2023-04-15T00:20:32;5.35;;;4.40;;
8478;SDS011;4276;49.354;6.804;2023-04-15T00:22:59;6.45;;;4.97;;
8478;SDS011;4276;49.354;6.804;2023-04-15T00:25:27;7.43;;;5.78;;
8478;SDS011;4276;49.354;6.804;2023-04-15T00:27:54;7.20;;;5.30;;
8478;SDS011;4276;49.354;6.804;2023-04-15T00:30:20;6.38;;;5.05;;
8478;SDS011;4276;49.354;6.804;2023-04-15T00:32:47;5.35;;;4.85;;
8478;SDS011;4276;49.354;6.804;2023-04-15T00:35:14;5.90;;;4.60;;
8478;SDS011;4276;49.354;6.804;2023-04-15T00:37:41;7.25;;;4.78;;
8478;SDS011;4276;49.354;6.804;2023-04-15T00:40:11;5.40;;;4.03;;
8478;SDS011;4276;49.354;6.804;2023-04-15T00:42:38;6.15;;;4.85;;
8478;SDS011;4276;49.354;6.804;2023-04-15T00:45:04;5.45;;;4.25;;
8478;SDS011;4276;49.354;6.804;2023-04-15T00:47:32;6.53;;;3.90;;
8478;SDS011;4276;49.354;6.804;2023-04-15T00:49:58;4.13;;;3.55;;
8478;SDS011;4276;49.354;6.804;2023-04-15T00:52:25;5.53;;;4.20;;
8478;SDS011;4276;49.354;6.804;2023-04-15T00:54:52;4.85;;;4.35;;
8478;SDS011;4276;49.354;6.804;2023-04-15T00:57:19;4.75;;;3.53;;
8478;SDS011;4276;49.354;6.804;2023-04-15T00:59:47;3.95;;;3.60;;
8478;SDS011;4276;49.354;6.804;2023-04-15T01:02:14;3.40;;;3.10;;
8478;SDS011;4276;49.354;6.804;2023-04-15T01:04:40;5.18;;;3.72;;
8478;SDS011;4276;49.354;6.804;2023-04-15T01:07:07;6.85;;;3.78;;
8478;SDS011;4276;49.354;6.804;2023-04-15T01:09:34;4.93;;;3.60;;
8478;SDS011;4276;49.354;6.804;2023-04-15T01:12:00;8.48;;;3.72;;
8478;SDS011;4276;49.354;6.804;2023-04-15T01:14:27;4.47;;;3.70;;
8478;SDS011;4276;49.354;6.804;2023-04-15T01:16:54;3.63;;;3.33;;
8478;SDS011;4276;49.354;6.804;2023-04-15T01:19:20;4.18;;;3.78;;
8478;SDS011;4276;49.354;6.804;2023-04-15T01:21:47;4.05;;;3.30;;
8478;SDS011;4276;49.354;6.804;2023-04-15T01:24:14;4.70;;;4.07;;
8478;SDS011;4276;49.354;6.804;2023-04-15T01:26:43;5.35;;;4.15;;
8478;SDS011;4276;49.354;6.804;2023-04-15T01:29:10;4.20;;;3.60;;
8478;SDS011;4276;49.354;6.804;2023-04-15T01:31:36;5.90;;;4.05;;
8478;SDS011;4276;49.354;6.804;2023-04-15T01:34:03;4.00;;;3.70;;
8478;SDS011;4276;49.354;6.804;2023-04-15T01:36:30;3.67;;;3.38;;
8478;SDS011;4276;49.354;6.804;2023-04-15T01:38:56;4.05;;;3.65;;
8478;SDS011;4276;49.354;6.804;2023-04-15T01:41:27;5.32;;;4.13;;
8478;SDS011;4276;49.354;6.804;2023-04-15T01:43:54;4.30;;;3.90;;
8478;SDS011;4276;49.354;6.804;2023-04-15T01:46:21;4.65;;;4.22;;
8478;SDS011;4276;49.354;6.804;2023-04-15T01:48:48;4.85;;;4.18;;
8478;SDS011;4276;49.354;6.804;2023-04-15T01:51:15;8.23;;;4.38;;
8478;SDS011;4276;49.354;6.804;2023-04-15T01:53:41;5.63;;;3.67;;
8478;SDS011;4276;49.354;6.804;2023-04-15T01:56:08;6.50;;;3.97;;
8478;SDS011;4276;49.354;6.804;2023-04-15T01:58:34;4.45;;;3.50;;
8478;SDS011;4276;49.354;6.804;2023-04-15T02:01:03;5.72;;;4.43;;
8478;SDS011;4276;49.354;6.804;2023-04-15T02:03:30;4.35;;;3.95;;
8478;SDS011;4276;49.354;6.804;2023-04-15T02:05:56;5.07;;;3.90;;
8478;SDS011;4276;49.354;6.804;2023-04-15T02:08:23;4.35;;;3.70;;
8478;SDS011;4276;49.354;6.804;2023-04-15T02:10:50;5.38;;;3.80;;
8478;SDS011;4276;49.354;6.804;2023-04-15T02:13:16;6.00;;;3.92;;
8478;SDS011;4276;49.354;6.804;2023-04-15T02:15:49;5.05;;;4.20;;
8478;SDS011;4276;49.354;6.804;2023-04-15T02:18:17;4.82;;;3.92;;
8478;SDS011;4276;49.354;6.804;2023-04-15T02:20:44;4.25;;;3.85;;
8478;SDS011;4276;49.354;6.804;2023-04-15T02:23:10;4.13;;;3.58;;
8478;SDS011;4276;49.354;6.804;2023-04-15T02:25:37;4.20;;;3.78;;
8478;SDS011;4276;49.354;6.804;2023-04-15T02:28:06;3.90;;;3.55;;
8478;SDS011;4276;49.354;6.804;2023-04-15T02:30:33;4.00;;;3.60;;
8478;SDS011;4276;49.354;6.804;2023-04-15T02:33:00;4.93;;;3.70;;
8478;SDS011;4276;49.354;6.804;2023-04-15T02:35:27;4.80;;;3.83;;
8478;SDS011;4276;49.354;6.804;2023-04-15T02:37:53;4.15;;;3.47;;
8478;SDS011;4276;49.354;6.804;2023-04-15T02:40:20;4.22;;;3.30;;
8478;SDS011;4276;49.354;6.804;2023-04-15T02:42:46;3.53;;;3.22;;
8478;SDS011;4276;49.354;6.804;2023-04-15T02:45:13;6.68;;;3.40;;
8478;SDS011;4276;49.354;6.804;2023-04-15T02:47:39;4.50;;;3.38;;
8478;SDS011;4276;49.354;6.804;2023-04-15T02:50:07;4.00;;;3.33;;
8478;SDS011;4276;49.354;6.804;2023-04-15T02:52:34;4.30;;;3.30;;
8478;SDS011;4276;49.354;6.804;2023-04-15T02:55:01;4.20;;;3.38;;
8478;SDS011;4276;49.354;6.804;2023-04-15T02:57:27;3.70;;;3.35;;
8478;SDS011;4276;49.354;6.804;2023-04-15T02:59:56;3.80;;;3.42;;
8478;SDS011;4276;49.354;6.804;2023-04-15T03:02:23;4.00;;;3.60;;
8478;SDS011;4276;49.354;6.804;2023-04-15T03:04:50;4.57;;;3.30;;
8478;SDS011;4276;49.354;6.804;2023-04-15T03:07:17;4.43;;;3.13;;
8478;SDS011;4276;49.354;6.804;2023-04-15T03:09:44;4.95;;;3.63;;
8478;SDS011;4276;49.354;6.804;2023-04-15T03:12:11;3.30;;;3.00;;
8478;SDS011;4276;49.354;6.804;2023-04-15T03:14:37;4.57;;;3.08;;
8478;SDS011;4276;49.354;6.804;2023-04-15T03:17:04;5.20;;;3.65;;
8478;SDS011;4276;49.354;6.804;2023-04-15T03:19:30;4.50;;;3.60;;
8478;SDS011;4276;49.354;6.804;2023-04-15T03:21:57;4.28;;;3.38;;
8478;SDS011;4276;49.354;6.804;2023-04-15T03:24:23;3.15;;;2.85;;
8478;SDS011;4276;49.354;6.804;2023-04-15T03:26:50;4.60;;;3.63;;
8478;SDS011;4276;49.354;6.804;2023-04-15T03:29:16;5.03;;;3.42;;
8478;SDS011;4276;49.354;6.804;2023-04-15T03:31:43;4.18;;;3.20;;
8478;SDS011;4276;49.354;6.804;2023-04-15T03:34:09;3.80;;;3.38;;
8478;SDS011;4276;49.354;6.804;2023-04-15T03:36:36;4.43;;;3.40;;
8478;SDS011;4276;49.354;6.804;2023-04-15T03:39:02;3.67;;;3.30;;
8478;SDS011;4276;49.354;6.804;2023-04-15T03:41:29;3.83;;;3.30;;
8478;SDS011;4276;49.354;6.804;2023-04-15T03:43:55;4.25;;;3.38;;
8478;SDS011;4276;49.354;6.804;2023-04-15T03:46:22;4.20;;;3.45;;
8478;SDS011;4276;49.354;6.804;2023-04-15T03:48:49;3.45;;;3.15;;
8478;SDS011;4276;49.354;6.804;2023-04-15T03:51:15;3.10;;;2.90;;
8478;SDS011;4276;49.354;6.804;2023-04-15T03:53:42;3.55;;;3.03;;
8478;SDS011;4276;49.354;6.804;2023-04-15T03:56:08;3.63;;;3.30;;
8478;SDS011;4276;49.354;6.804;2023-04-15T03:58:34;4.15;;;3.00;;
8478;SDS011;4276;49.354;6.804;2023-04-15T04:01:01;3.95;;;3.58;;
8478;SDS011;4276;49.354;6.804;2023-04-15T04:03:28;3.95;;;3.53;;
8478;SDS011;4276;49.354;6.804;2023-04-15T04:05:54;4.20;;;3.83;;
8478;SDS011;4276;49.354;6.804;2023-04-15T04:08:21;4.05;;;3.65;;
8478;SDS011;4276;49.354;6.804;2023-04-15T04:10:47;3.78;;;3.40;;
8478;SDS011;4276;49.354;6.804;2023-04-15T04:13:14;5.55;;;3.55;;
8478;SDS011;4276;49.354;6.804;2023-04-15T04:15:40;4.43;;;3.20;;
8478;SDS011;4276;49.354;6.804;2023-04-15T04:18:07;4.05;;;3.60;;
8478;SDS011;4276;49.354;6.804;2023-04-15T04:20:33;4.55;;;3.50;;
8478;SDS011;4276;49.354;6.804;2023-04-15T04:23:00;3.90;;;3.50;;
8478;SDS011;4276;49.354;6.804;2023-04-15T04:25:26;3.42;;;3.10;;
8478;SDS011;4276;49.354;6.804;2023-04-15T04:27:53;4.32;;;3.78;;
8478;SDS011;4276;49.354;6.804;2023-04-15T04:30:19;5.03;;;3.45;;
8478;SDS011;4276;49.354;6.804;2023-04-15T04:32:46;5.65;;;3.50;;
8478;SDS011;4276;49.354;6.804;2023-04-15T04:35:13;4.22;;;3.20;;
8478;SDS011;4276;49.354;6.804;2023-04-15T04:37:39;4.63;;;3.20;;
8478;SDS011;4276;49.354;6.804;2023-04-15T04:40:06;3.88;;;3.58;;
8478;SDS011;4276;49.354;6.804;2023-04-15T04:42:34;3.03;;;2.83;;
8478;SDS011;4276;49.354;6.804;2023-04-15T04:45:04;3.67;;;3.30;;
8478;SDS011;4276;49.354;6.804;2023-04-15T04:47:31;4.50;;;3.42;;
8478;SDS011;4276;49.354;6.804;2023-04-15T04:49:57;5.03;;;3.65;;
8478;SDS011;4276;49.354;6.804;2023-04-15T04:52:24;4.07;;;3.60;;
8478;SDS011;4276;49.354;6.804;2023-04-15T04:54:50;5.18;;;3.30;;
8478;SDS011;4276;49.354;6.804;2023-04-15T04:57:17;5.25;;;3.40;;
8478;SDS011;4276;49.354;6.804;2023-04-15T04:59:43;5.40;;;3.20;;
8478;SDS011;4276;49.354;6.804;2023-04-15T05:02:10;5.03;;;3.20;;
8478;SDS011;4276;49.354;6.804;2023-04-15T05:04:36;3.55;;;3.25;;
8478;SDS011;4276;49.354;6.804;2023-04-15T05:07:03;4.82;;;3.67;;
8478;SDS011;4276;49.354;6.804;2023-04-15T05:09:29;3.70;;;3.40;;
8478;SDS011;4276;49.354;6.804;2023-04-15T05:11:57;4.70;;;3.60;;
8478;SDS011;4276;49.354;6.804;2023-04-15T05:14:24;4.75;;;3.40;;
8478;SDS011;4276;49.354;6.804;2023-04-15T05:16:51;3.47;;;2.88;;
8478;SDS011;4276;49.354;6.804;2023-04-15T05:19:17;4.95;;;3.38;;
8478;SDS011;4276;49.354;6.804;2023-04-15T05:21:43;6.55;;;3.45;;
8478;SDS011;4276;49.354;6.804;2023-04-15T05:24:10;3.17;;;2.90;;
8478;SDS011;4276;49.354;6.804;2023-04-15T05:26:36;4.35;;;2.92;;
8478;SDS011;4276;49.354;6.804;2023-04-15T05:29:03;2.92;;;2.72;;
8478;SDS011;4276;49.354;6.804;2023-04-15T05:31:29;3.75;;;2.80;;
8478;SDS011;4276;49.354;6.804;2023-04-15T05:33:56;3.97;;;3.30;;
8478;SDS011;4276;49.354;6.804;2023-04-15T05:36:22;4.15;;;3.17;;
8478;SDS011;4276;49.354;6.804;2023-04-15T05:38:49;3.10;;;2.80;;
8478;SDS011;4276;49.354;6.804;2023-04-15T05:41:15;2.97;;;2.70;;
8478;SDS011;4276;49.354;6.804;2023-04-15T05:43:45;3.25;;;2.88;;
8478;SDS011;4276;49.354;6.804;2023-04-15T05:46:11;3.80;;;3.40;;
8478;SDS011;4276;49.354;6.804;2023-04-15T05:48:38;3.63;;;3.30;;
8478;SDS011;4276;49.354;6.804;2023-04-15T05:51:04;4.80;;;3.20;;
8478;SDS011;4276;49.354;6.804;2023-04-15T05:53:31;3.60;;;2.83;;
8478;SDS011;4276;49.354;6.804;2023-04-15T05:55:57;3.00;;;2.63;;
8478;SDS011;4276;49.354;6.804;2023-04-15T05:58:24;3.90;;;2.78;;
8478;SDS011;4276;49.354;6.804;2023-04-15T06:00:51;3.13;;;2.80;;
8478;SDS011;4276;49.354;6.804;2023-04-15T06:03:17;3.13;;;2.63;;
8478;SDS011;4276;49.354;6.804;2023-04-15T06:05:44;3.42;;;2.47;;
8478;SDS011;4276;49.354;6.804;2023-04-15T06:08:10;3.10;;;2.80;;
8478;SDS011;4276;49.354;6.804;2023-04-15T06:10:37;6.25;;;3.13;;
8478;SDS011;4276;49.354;6.804;2023-04-15T06:13:04;3.95;;;2.80;;
8478;SDS011;4276;49.354;6.804;2023-04-15T06:15:30;2.95;;;2.65;;
8478;SDS011;4276;49.354;6.804;2023-04-15T06:17:57;3.17;;;2.42;;
8478;SDS011;4276;49.354;6.804;2023-04-15T06:20:24;4.00;;;2.92;;
8478;SDS011;4276;49.354;6.804;2023-04-15T06:22:51;3.95;;;2.67;;
8478;SDS011;4276;49.354;6.804;2023-04-15T06:25:17;4.43;;;3.00;;
8478;SDS011;4276;49.354;6.804;2023-04-15T06:27:44;3.10;;;2.80;;
8478;SDS011;4276;49.354;6.804;2023-04-15T06:30:10;3.25;;;2.67;;
8478;SDS011;4276;49.354;6.804;2023-04-15T06:32:37;3.33;;;3.03;;
8478;SDS011;4276;49.354;6.804;2023-04-15T06:35:04;3.45;;;3.08;;
8478;SDS011;4276;49.354;6.804;2023-04-15T06:37:31;3.17;;;2.72;;
8478;SDS011;4276;49.354;6.804;2023-04-15T06:39:57;4.15;;;2.70;;
8478;SDS011;4276;49.354;6.804;2023-04-15T06:42:24;3.25;;;2.90;;
8478;SDS011;4276;49.354;6.804;2023-04-15T06:44:50;3.00;;;2.65;;
8478;SDS011;4276;49.354;6.804;2023-04-15T06:47:17;4.45;;;2.70;;
8478;SDS011;4276;49.354;6.804;2023-04-15T06:49:45;4.50;;;3.03;;
8478;SDS011;4276;49.354;6.804;2023-04-15T06:52:11;3.90;;;3.35;;
8478;SDS011;4276;49.354;6.804;2023-04-15T06:54:38;3.60;;;3.30;;
8478;SDS011;4276;49.354;6.804;2023-04-15T06:57:04;3.88;;;3.00;;
8478;SDS011;4276;49.354;6.804;2023-04-15T06:59:32;3.08;;;2.78;;
8478;SDS011;4276;49.354;6.804;2023-04-15T07:01:58;4.28;;;2.83;;
8478;SDS011;4276;49.354;6.804;2023-04-15T07:04:25;3.75;;;2.90;;
8478;SDS011;4276;49.354;6.804;2023-04-15T07:06:51;3.40;;;2.70;;
8478;SDS011;4276;49.354;6.804;2023-04-15T07:09:18;2.53;;;2.10;;
8478;SDS011;4276;49.354;6.804;2023-04-15T07:11:44;2.22;;;2.00;;
8478;SDS011;4276;49.354;6.804;2023-04-15T07:14:11;3.05;;;2.42;;
8478;SDS011;4276;49.354;6.804;2023-04-15T07:16:37;3.50;;;2.45;;
8478;SDS011;4276;49.354;6.804;2023-04-15T07:19:04;4.43;;;2.13;;
8478;SDS011;4276;49.354;6.804;2023-04-15T07:21:30;3.47;;;2.25;;
8478;SDS011;4276;49.354;6.804;2023-04-15T07:23:57;4.40;;;2.65;;
8478;SDS011;4276;49.354;6.804;2023-04-15T07:26:24;4.00;;;2.65;;
8478;SDS011;4276;49.354;6.804;2023-04-15T07:28:50;4.32;;;2.10;;
8478;SDS011;4276;49.354;6.804;2023-04-15T07:31:17;2.50;;;2.00;;
8478;SDS011;4276;49.354;6.804;2023-04-15T07:33:43;3.22;;;1.70;;
8478;SDS011;4276;49.354;6.804;2023-04-15T07:36:10;2.25;;;1.92;;
8478;SDS011;4276;49.354;6.804;2023-04-15T07:38:37;2.90;;;2.30;;
8478;SDS011;4276;49.354;6.804;2023-04-15T07:41:03;2.75;;;2.10;;
8478;SDS011;4276;49.354;6.804;2023-04-15T07:43:30;2.88;;;2.25;;
8478;SDS011;4276;49.354;6.804;2023-04-15T07:45:56;3.80;;;1.98;;
8478;SDS011;4276;49.354;6.804;2023-04-15T07:48:22;4.35;;;2.15;;
8478;SDS011;4276;49.354;6.804;2023-04-15T07:50:49;4.18;;;1.92;;
8478;SDS011;4276;49.354;6.804;2023-04-15T07:53:18;2.13;;;1.73;;
8478;SDS011;4276;49.354;6.804;2023-04-15T07:55:45;3.28;;;2.20;;
8478;SDS011;4276;49.354;6.804;2023-04-15T07:58:11;2.65;;;1.90;;
8478;SDS011;4276;49.354;6.804;2023-04-15T08:00:38;3.35;;;2.13;;
8478;SDS011;4276;49.354;6.804;2023-04-15T08:03:05;2.95;;;2.17;;
8478;SDS011;4276;49.354;6.804;2023-04-15T08:05:32;3.13;;;2.20;;
8478;SDS011;4276;49.354;6.804;2023-04-15T08:07:59;3.25;;;1.95;;
8478;SDS011;4276;49.354;6.804;2023-04-15T08:10:28;2.70;;;2.20;;
8478;SDS011;4276;49.354;6.804;2023-04-15T08:12:55;2.65;;;2.20;;
8478;SDS011;4276;49.354;6.804;2023-04-15T08:15:21;4.15;;;2.13;;
8478;SDS011;4276;49.354;6.804;2023-04-15T08:17:48;3.38;;;2.45;;
8478;SDS011;4276;49.354;6.804;2023-04-15T08:20:15;2.78;;;2.30;;
8478;SDS011;4276;49.354;6.804;2023-04-15T08:22:41;2.72;;;2.35;;
8478;SDS011;4276;49.354;6.804;2023-04-15T08:25:08;4.25;;;2.17;;
8478;SDS011;4276;49.354;6.804;2023-04-15T08:27:35;3.72;;;1.90;;
8478;SDS011;4276;49.354;6.804;2023-04-15T08:30:01;3.45;;;1.70;;
8478;SDS011;4276;49.354;6.804;2023-04-15T08:32:30;2.65;;;1.70;;
8478;SDS011;4276;49.354;6.804;2023-04-15T08:34:57;2.92;;;2.05;;
8478;SDS011;4276;49.354;6.804;2023-04-15T08:37:23;3.20;;;1.85;;
8478;SDS011;4276;49.354;6.804;2023-04-15T08:39:49;2.33;;;1.70;;
8478;SDS011;4276;49.354;6.804;2023-04-15T08:42:16;2.08;;;1.80;;
8478;SDS011;4276;49.354;6.804;2023-04-15T08:44:44;3.95;;;2.05;;
8478;SDS011;4276;49.354;6.804;2023-04-15T08:47:12;2.63;;;1.80;;
8478;SDS011;4276;49.354;6.804;2023-04-15T08:49:39;3.08;;;2.05;;
8478;SDS011;4276;49.354;6.804;2023-04-15T08:52:08;2.85;;;1.88;;
8478;SDS011;4276;49.354;6.804;2023-04-15T08:54:35;3.58;;;1.95;;
8478;SDS011;4276;49.354;6.804;2023-04-15T08:57:01;3.08;;;2.50;;
8478;SDS011;4276;49.354;6.804;2023-04-15T08:59:29;2.63;;;1.67;;
8478;SDS011;4276;49.354;6.804;2023-04-15T09:01:56;4.57;;;1.83;;
8478;SDS011;4276;49.354;6.804;2023-04-15T09:04:23;3.78;;;2.05;;
8478;SDS011;4276;49.354;6.804;2023-04-15T09:06:49;3.08;;;2.13;;
8478;SDS011;4276;49.354;6.804;2023-04-15T09:09:17;3.35;;;1.77;;
8478;SDS011;4276;49.354;6.804;2023-04-15T09:11:43;3.75;;;1.98;;
8478;SDS011;4276;49.354;6.804;2023-04-15T09:14:10;4.07;;;1.85;;
8478;SDS011;4276;49.354;6.804;2023-04-15T09:16:59;3.10;;;1.92;;
8478;SDS011;4276;49.354;6.804;2023-04-15T09:19:27;3.97;;;1.98;;
8478;SDS011;4276;49.354;6.804;2023-04-15T09:21:56;2.50;;;1.65;;
8478;SDS011;4276;49.354;6.804;2023-04-15T09:24:25;3.85;;;1.60;;
8478;SDS011;4276;49.354;6.804;2023-04-15T09:26:59;3.28;;;1.70;;
8478;SDS011;4276;49.354;6.804;2023-04-15T09:29:26;2.28;;;1.52;;
8478;SDS011;4276;49.354;6.804;2023-04-15T09:31:52;1.65;;;1.38;;
8478;SDS011;4276;49.354;6.804;2023-04-15T09:34:19;4.10;;;1.88;;
8478;SDS011;4276;49.354;6.804;2023-04-15T09:39:16;2.88;;;1.50;;
8478;SDS011;4276;49.354;6.804;2023-04-15T09:41:42;2.85;;;1.58;;
8478;SDS011;4276;49.354;6.804;2023-04-15T09:44:22;3.15;;;1.70;;
8478;SDS011;4276;49.354;6.804;2023-04-15T09:46:49;3.72;;;1.60;;
8478;SDS011;4276;49.354;6.804;2023-04-15T09:49:16;1.83;;;1.58;;
8478;SDS011;4276;49.354;6.804;2023-04-15T09:51:43;5.32;;;1.85;;
8478;SDS011;4276;49.354;6.804;2023-04-15T09:54:33;2.13;;;1.90;;
8478;SDS011;4276;49.354;6.804;2023-04-15T09:57:05;2.75;;;1.42;;
8478;SDS011;4276;49.354;6.804;2023-04-15T09:59:32;4.03;;;1.75;;
8478;SDS011;4276;49.354;6.804;2023-04-15T10:01:58;2.22;;;1.50;;
8478;SDS011;4276;49.354;6.804;2023-04-15T10:04:26;3.95;;;1.40;;
8478;SDS011;4276;49.354;6.804;2023-04-15T10:06:53;2.78;;;1.40;;
8478;SDS011;4276;49.354;6.804;2023-04-15T10:09:20;3.17;;;1.38;;
8478;SDS011;4276;49.354;6.804;2023-04-15T10:11:46;2.30;;;1.38;;
8478;SDS011;4276;49.354;6.804;2023-04-15T10:14:14;3.05;;;1.42;;
8478;SDS011;4276;49.354;6.804;2023-04-15T10:16:41;1.63;;;1.45;;
8478;SDS011;4276;49.354;6.804;2023-04-15T10:19:11;1.52;;;1.38;;
8478;SDS011;4276;49.354;6.804;2023-04-15T10:21:37;4.07;;;1.40;;
8478;SDS011;4276;49.354;6.804;2023-04-15T10:24:04;2.40;;;1.45;;
8478;SDS011;4276;49.354;6.804;2023-04-15T10:26:31;2.17;;;1.50;;
8478;SDS011;4276;49.354;6.804;2023-04-15T10:28:58;2.15;;;1.65;;
8478;SDS011;4276;49.354;6.804;2023-04-15T10:31:25;2.75;;;1.55;;
8478;SDS011;4276;49.354;6.804;2023-04-15T10:33:52;1.88;;;1.45;;
8478;SDS011;4276;49.354;6.804;2023-04-15T10:36:18;2.03;;;1.60;;
8478;SDS011;4276;49.354;6.804;2023-04-15T10:38:45;1.70;;;1.30;;
8478;SDS011;4276;49.354;6.804;2023-04-15T10:43:52;4.22;;;1.85;;
8478;SDS011;4276;49.354;6.804;2023-04-15T10:46:36;3.33;;;1.50;;
8478;SDS011;4276;49.354;6.804;2023-04-15T10:51:35;2.00;;;1.50;;
8478;SDS011;4276;49.354;6.804;2023-04-15T10:54:13;2.47;;;1.80;;
8478;SDS011;4276;49.354;6.804;2023-04-15T10:56:41;4.50;;;1.60;;
8478;SDS011;4276;49.354;6.804;2023-04-15T10:59:09;2.65;;;1.65;;
8478;SDS011;4276;49.354;6.804;2023-04-15T11:04:51;2.63;;;1.58;;
8478;SDS011;4276;49.354;6.804;2023-04-15T11:12:46;1.75;;;1.17;;
8478;SDS011;4276;49.354;6.804;2023-04-15T11:20:40;2.15;;;1.30;;
8478;SDS011;4276;49.354;6.804;2023-04-15T11:23:07;1.75;;;1.35;;
8478;SDS011;4276;49.354;6.804;2023-04-15T11:25:40;4.90;;;2.47;;
8478;SDS011;4276;49.354;6.804;2023-04-15T11:28:08;2.75;;;1.73;;
8478;SDS011;4276;49.354;6.804;2023-04-15T11:30:36;3.15;;;1.60;;
8478;SDS011;4276;49.354;6.804;2023-04-15T11:33:07;3.10;;;1.73;;
8478;SDS011;4276;49.354;6.804;2023-04-15T11:35:35;2.65;;;1.75;;
8478;SDS011;4276;49.354;6.804;2023-04-15T11:38:02;3.20;;;1.90;;
8478;SDS011;4276;49.354;6.804;2023-04-15T11:40:29;1.70;;;1.35;;
8478;SDS011;4276;49.354;6.804;2023-04-15T11:48:25;3.25;;;1.80;;
8478;SDS011;4276;49.354;6.804;2023-04-15T11:51:11;2.67;;;1.65;;
8478;SDS011;4276;49.354;6.804;2023-04-15T11:58:51;3.88;;;1.70;;
8478;SDS011;4276;49.354;6.804;2023-04-15T12:01:34;1.55;;;1.25;;
8478;SDS011;4276;49.354;6.804;2023-04-15T12:04:02;3.75;;;1.40;;
8478;SDS011;4276;49.354;6.804;2023-04-15T12:06:37;2.30;;;1.48;;
8478;SDS011;4276;49.354;6.804;2023-04-15T12:09:08;1.92;;;1.40;;
8478;SDS011;4276;49.354;6.804;2023-04-15T12:11:36;2.10;;;1.50;;
8478;SDS011;4276;49.354;6.804;2023-04-15T12:16:43;2.40;;;1.55;;
8478;SDS011;4276;49.354;6.804;2023-04-15T12:19:24;2.63;;;1.30;;
8478;SDS011;4276;49.354;6.804;2023-04-15T12:21:56;2.92;;;1.60;;
8478;SDS011;4276;49.354;6.804;2023-04-15T12:24:27;2.15;;;1.52;;
8478;SDS011;4276;49.354;6.804;2023-04-15T12:26:57;3.25;;;1.90;;
8478;SDS011;4276;49.354;6.804;2023-04-15T12:29:28;3.58;;;2.05;;
8478;SDS011;4276;49.354;6.804;2023-04-15T12:31:56;2.92;;;1.60;;
8478;SDS011;4276;49.354;6.804;2023-04-15T12:34:27;2.88;;;1.50;;
8478;SDS011;4276;49.354;6.804;2023-04-15T12:36:55;2.83;;;1.70;;
8478;SDS011;4276;49.354;6.804;2023-04-15T12:39:26;2.42;;;1.67;;
8478;SDS011;4276;49.354;6.804;2023-04-15T12:41:59;2.47;;;1.63;;
8478;SDS011;4276;49.354;6.804;2023-04-15T12:44:27;2.30;;;1.65;;
8478;SDS011;4276;49.354;6.804;2023-04-15T12:46:54;2.78;;;1.65;;
8478;SDS011;4276;49.354;6.804;2023-04-15T12:49:21;1.40;;;1.30;;
8478;SDS011;4276;49.354;6.804;2023-04-15T12:51:48;2.83;;;2.20;;
8478;SDS011;4276;49.354;6.804;2023-04-15T12:54:16;3.65;;;2.08;;
8478;SDS011;4276;49.354;6.804;2023-04-15T12:56:44;3.28;;;1.83;;
8478;SDS011;4276;49.354;6.804;2023-04-15T12:59:11;4.22;;;1.95;;
8478;SDS011;4276;49.354;6.804;2023-04-15T13:01:38;3.28;;;1.52;;
8478;SDS011;4276;49.354;6.804;2023-04-15T13:04:05;2.47;;;1.73;;
8478;SDS011;4276;49.354;6.804;2023-04-15T13:06:32;3.13;;;2.00;;
8478;SDS011;4276;49.354;6.804;2023-04-15T13:08:58;3.88;;;2.17;;
8478;SDS011;4276;49.354;6.804;2023-04-15T13:11:28;2.25;;;1.70;;
8478;SDS011;4276;49.354;6.804;2023-04-15T13:13:56;3.17;;;2.08;;
8478;SDS011;4276;49.354;6.804;2023-04-15T13:16:22;1.83;;;1.50;;
8478;SDS011;4276;49.354;6.804;2023-04-15T13:18:49;2.00;;;1.70;;
8478;SDS011;4276;49.354;6.804;2023-04-15T13:21:16;3.30;;;1.83;;
8478;SDS011;4276;49.354;6.804;2023-04-15T13:23:44;2.28;;;1.48;;
8478;SDS011;4276;49.354;6.804;2023-04-15T13:26:11;1.90;;;1.60;;
8478;SDS011;4276;49.354;6.804;2023-04-15T13:28:38;1.92;;;1.40;;
8478;SDS011;4276;49.354;6.804;2023-04-15T13:31:04;1.73;;;1.50;;
8478;SDS011;4276;49.354;6.804;2023-04-15T13:33:31;2.90;;;1.63;;
8478;SDS011;4276;49.354;6.804;2023-04-15T13:35:57;1.73;;;1.60;;
8478;SDS011;4276;49.354;6.804;2023-04-15T13:38:24;4.55;;;1.48;;
8478;SDS011;4276;49.354;6.804;2023-04-15T13:40:51;2.15;;;1.83;;
8478;SDS011;4276;49.354;6.804;2023-04-15T13:43:17;2.05;;;1.30;;
8478;SDS011;4276;49.354;6.804;2023-04-15T13:45:45;1.65;;;1.42;;
8478;SDS011;4276;49.354;6.804;2023-04-15T13:48:12;1.92;;;1.40;;
8478;SDS011;4276;49.354;6.804;2023-04-15T13:50:38;1.38;;;1.27;;
8478;SDS011;4276;49.354;6.804;2023-04-15T13:53:08;3.17;;;1.60;;
8478;SDS011;4276;49.354;6.804;2023-04-15T13:55:34;4.82;;;1.45;;
8478;SDS011;4276;49.354;6.804;2023-04-15T13:58:00;2.03;;;1.50;;
8478;SDS011;4276;49.354;6.804;2023-04-15T14:00:27;1.38;;;1.27;;
8478;SDS011;4276;49.354;6.804;2023-04-15T14:02:53;1.98;;;1.10;;
8478;SDS011;4276;49.354;6.804;2023-04-15T14:05:20;2.05;;;1.83;;
8478;SDS011;4276;49.354;6.804;2023-04-15T14:07:47;1.73;;;1.20;;
8478;SDS011;4276;49.354;6.804;2023-04-15T14:10:13;1.42;;;1.30;;
8478;SDS011;4276;49.354;6.804;2023-04-15T14:12:40;1.08;;;1.00;;
8478;SDS011;4276;49.354;6.804;2023-04-15T14:15:06;1.33;;;1.10;;
8478;SDS011;4276;49.354;6.804;2023-04-15T14:17:33;1.45;;;1.30;;
8478;SDS011;4276;49.354;6.804;2023-04-15T14:19:59;1.30;;;1.20;;
8478;SDS011;4276;49.354;6.804;2023-04-15T14:22:26;1.50;;;1.20;;
8478;SDS011;4276;49.354;6.804;2023-04-15T14:24:52;1.83;;;1.30;;
8478;SDS011;4276;49.354;6.804;2023-04-15T14:27:20;1.33;;;1.23;;
8478;SDS011;4276;49.354;6.804;2023-04-15T14:29:47;1.60;;;1.40;;
8478;SDS011;4276;49.354;6.804;2023-04-15T14:32:13;1.40;;;1.30;;
8478;SDS011;4276;49.354;6.804;2023-04-15T14:34:42;1.30;;;1.20;;
8478;SDS011;4276;49.354;6.804;2023-04-15T14:37:08;1.83;;;1.63;;
8478;SDS011;4276;49.354;6.804;2023-04-15T14:39:35;2.80;;;1.50;;
8478;SDS011;4276;49.354;6.804;2023-04-15T14:42:01;1.27;;;1.17;;
8478;SDS011;4276;49.354;6.804;2023-04-15T14:44:28;1.58;;;1.48;;
8478;SDS011;4276;49.354;6.804;2023-04-15T14:46:57;2.88;;;1.77;;
8478;SDS011;4276;49.354;6.804;2023-04-15T14:49:24;1.70;;;1.60;;
8478;SDS011;4276;49.354;6.804;2023-04-15T14:51:51;1.98;;;1.63;;
8478;SDS011;4276;49.354;6.804;2023-04-15T14:54:17;1.98;;;1.60;;
8478;SDS011;4276;49.354;6.804;2023-04-15T14:56:45;2.03;;;1.60;;
8478;SDS011;4276;49.354;6.804;2023-04-15T14:59:13;1.75;;;1.65;;
8478;SDS011;4276;49.354;6.804;2023-04-15T15:01:39;1.60;;;1.50;;
8478;SDS011;4276;49.354;6.804;2023-04-15T15:04:06;2.28;;;2.00;;
8478;SDS011;4276;49.354;6.804;2023-04-15T15:06:33;2.13;;;1.92;;
8478;SDS011;4276;49.354;6.804;2023-04-15T15:08:59;2.10;;;2.00;;
8478;SDS011;4276;49.354;6.804;2023-04-15T15:11:27;2.28;;;2.17;;
8478;SDS011;4276;49.354;6.804;2023-04-15T15:13:54;2.47;;;2.03;;
8478;SDS011;4276;49.354;6.804;2023-04-15T15:16:22;3.22;;;1.77;;
8478;SDS011;4276;49.354;6.804;2023-04-15T15:18:48;2.00;;;1.90;;
8478;SDS011;4276;49.354;6.804;2023-04-15T15:21:16;1.60;;;1.50;;
8478;SDS011;4276;49.354;6.804;2023-04-15T15:23:43;2.25;;;1.63;;
8478;SDS011;4276;49.354;6.804;2023-04-15T15:26:10;1.60;;;1.50;;
8478;SDS011;4276;49.354;6.804;2023-04-15T15:28:37;2.80;;;2.60;;
8478;SDS011;4276;49.354;6.804;2023-04-15T15:31:03;2.13;;;1.95;;
8478;SDS011;4276;49.354;6.804;2023-04-15T15:33:30;1.90;;;1.65;;
8478;SDS011;4276;49.354;6.804;2023-04-15T15:35:57;1.60;;;1.50;;
8478;SDS011;4276;49.354;6.804;2023-04-15T15:38:24;1.73;;;1.60;;
8478;SDS011;4276;49.354;6.804;2023-04-15T15:40:51;1.75;;;1.58;;
8478;SDS011;4276;49.354;6.804;2023-04-15T15:43:17;1.23;;;1.13;;
8478;SDS011;4276;49.354;6.804;2023-04-15T15:45:44;1.50;;;1.40;;
8478;SDS011;4276;49.354;6.804;2023-04-15T15:48:10;1.75;;;1.45;;
8478;SDS011;4276;49.354;6.804;2023-04-15T15:50:37;3.17;;;1.40;;